createdAt,value
2017-12-04T00:00:36.182Z,88.69
2017-12-04T00:01:36.192Z,88.98
2017-12-04T00:02:35.949Z,88.79
2017-12-04T00:03:36.215Z,89.07
2017-12-04T00:04:36.223Z,88.6
2017-12-04T00:05:36.234Z,88.5
2017-12-04T00:06:36.247Z,88.5
2017-12-04T00:07:36.314Z,88.5
2017-12-04T00:08:36.272Z,88.6
2017-12-04T00:09:36.279Z,87.93
2017-12-04T00:10:36.291Z,88.03
2017-12-04T00:11:36.049Z,88.31
2017-12-04T00:12:36.313Z,87.84
2017-12-04T00:13:36.322Z,87.65
2017-12-04T00:14:36.336Z,87.65
2017-12-04T00:15:36.347Z,87.65
2017-12-04T00:16:36.362Z,87.46
2017-12-04T00:17:36.368Z,87.74
2017-12-04T00:18:36.379Z,87.37
2017-12-04T00:19:36.389Z,87.08
2017-12-04T00:20:36.405Z,86.9
2017-12-04T00:21:36.412Z,87.08
2017-12-04T00:22:36.474Z,87.08
2017-12-04T00:23:36.184Z,86.9
2017-12-04T00:24:36.444Z,87.08
2017-12-04T00:25:36.458Z,87.46
2017-12-04T00:26:36.216Z,87.84
2017-12-04T00:27:36.479Z,87.74
2017-12-04T00:28:36.489Z,87.27
2017-12-04T00:29:36.502Z,86.99
2017-12-04T00:30:36.259Z,86.9
2017-12-04T00:31:36.523Z,86.71
2017-12-04T00:32:36.542Z,87.08
2017-12-04T00:33:36.292Z,86.99
2017-12-04T00:34:36.324Z,86.52
2017-12-04T00:35:36.571Z,86.8
2017-12-04T00:36:36.326Z,86.71
2017-12-04T00:37:36.386Z,87.27
2017-12-04T00:38:36.603Z,87.27
2017-12-04T00:39:36.360Z,87.08
2017-12-04T00:40:36.621Z,87.08
2017-12-04T00:41:36.391Z,86.9
2017-12-04T00:42:36.394Z,86.9
2017-12-04T00:43:36.660Z,87.08
2017-12-04T00:44:36.667Z,87.08
2017-12-04T00:45:36.425Z,86.8
2017-12-04T00:46:36.689Z,87.08
2017-12-04T00:47:36.450Z,86.23
2017-12-04T00:48:36.718Z,86.33
2017-12-04T00:49:36.721Z,86.99
2017-12-04T00:50:36.480Z,86.14
2017-12-04T00:51:36.746Z,86.42
2017-12-04T00:52:36.756Z,86.8
2017-12-04T00:53:36.514Z,86.8
2017-12-04T00:54:36.826Z,86.52
2017-12-04T00:55:36.792Z,86.71
2017-12-04T00:56:36.549Z,85.66
2017-12-04T00:57:36.814Z,86.61
2017-12-04T00:58:36.823Z,86.61
2017-12-04T00:59:36.835Z,86.42
2017-12-04T01:00:36.845Z,86.14
2017-12-04T01:01:36.855Z,86.52
2017-12-04T01:02:36.868Z,86.04
2017-12-04T01:03:36.638Z,85.95
2017-12-04T01:04:36.888Z,86.14
2017-12-04T01:05:36.901Z,85.95
2017-12-04T01:06:36.660Z,85.57
2017-12-04T01:07:36.938Z,85.8
2017-12-04T01:08:36.938Z,85.42
2017-12-04T01:09:36.943Z,85.66
2017-12-04T01:10:36.704Z,85.47
2017-12-04T01:11:36.966Z,85.38
2017-12-04T01:12:36.978Z,84.67
2017-12-04T01:13:36.737Z,84.77
2017-12-04T01:14:36.999Z,85.24
2017-12-04T01:15:37.010Z,85.52
2017-12-04T01:16:36.772Z,85.38
2017-12-04T01:17:37.038Z,85.57
2017-12-04T01:18:37.046Z,85.57
2017-12-04T01:19:37.078Z,85.76
2017-12-04T01:20:37.069Z,85.33
2017-12-04T01:21:37.079Z,85.66
2017-12-04T01:22:37.092Z,85.76
2017-12-04T01:23:37.102Z,85.76
2017-12-04T01:24:37.116Z,85.38
2017-12-04T01:25:37.123Z,85.38
2017-12-04T01:26:37.153Z,85.38
2017-12-04T01:27:36.894Z,85.47
2017-12-04T01:28:37.163Z,85.85
2017-12-04T01:29:37.169Z,85.66
2017-12-04T01:30:37.229Z,85.85
2017-12-04T01:31:37.193Z,86.23
2017-12-04T01:32:37.206Z,86.33
2017-12-04T01:33:37.215Z,86.42
2017-12-04T01:34:36.971Z,86.52
2017-12-04T01:35:37.245Z,86.9
2017-12-04T01:36:37.247Z,86.9
2017-12-04T01:37:37.259Z,87.08
2017-12-04T01:38:37.016Z,87.08
2017-12-04T01:39:37.279Z,87.27
2017-12-04T01:40:37.296Z,87.18
2017-12-04T01:41:37.051Z,87.08
2017-12-04T01:42:37.313Z,87.37
2017-12-04T01:43:37.326Z,87.84
2017-12-04T01:44:37.335Z,87.55
2017-12-04T01:45:37.349Z,86.99
2017-12-04T01:46:37.105Z,87.65
2017-12-04T01:47:37.371Z,87.55
2017-12-04T01:48:37.380Z,87.55
2017-12-04T01:49:37.442Z,87.74
2017-12-04T01:50:37.400Z,87.55
2017-12-04T01:51:37.414Z,88.03
2017-12-04T01:52:37.425Z,87.55
2017-12-04T01:53:37.437Z,87.65
2017-12-04T01:54:37.195Z,87.46
2017-12-04T01:55:37.458Z,87.93
2017-12-04T01:56:37.468Z,87.74
2017-12-04T01:57:37.479Z,87.93
2017-12-04T01:58:37.238Z,87.84
2017-12-04T01:59:37.501Z,87.84
2017-12-04T02:00:37.513Z,87.74
2017-12-04T02:01:37.274Z,87.93
2017-12-04T02:02:37.535Z,88.6
2017-12-04T02:03:37.546Z,88.79
2017-12-04T02:04:37.579Z,88.6
2017-12-04T02:05:37.631Z,88.5
2017-12-04T02:06:37.597Z,88.41
2017-12-04T02:07:37.592Z,88.31
2017-12-04T02:08:37.602Z,88.79
2017-12-04T02:09:37.615Z,88.31
2017-12-04T02:10:37.376Z,88.03
2017-12-04T02:11:37.635Z,87.93
2017-12-04T02:12:37.649Z,87.18
2017-12-04T02:13:37.664Z,87.93
2017-12-04T02:14:37.666Z,87.37
2017-12-04T02:15:37.681Z,86.75
2017-12-04T02:16:37.437Z,86.09
2017-12-04T02:17:37.450Z,86.37
2017-12-04T02:18:37.712Z,86.37
2017-12-04T02:19:37.472Z,85.8
2017-12-04T02:20:37.558Z,86.28
2017-12-04T02:21:37.747Z,86.18
2017-12-04T02:22:37.767Z,85.99
2017-12-04T02:23:37.770Z,86.18
2017-12-04T02:24:37.782Z,85.85
2017-12-04T02:25:37.791Z,86.8
2017-12-04T02:26:37.804Z,86.33
2017-12-04T02:27:37.812Z,86.14
2017-12-04T02:28:37.825Z,85.85
2017-12-04T02:29:37.836Z,86.04
2017-12-04T02:30:37.847Z,86.14
2017-12-04T02:31:37.857Z,86.18
2017-12-04T02:32:37.879Z,86.28
2017-12-04T02:33:37.634Z,86.28
2017-12-04T02:34:37.892Z,86.18
2017-12-04T02:35:37.657Z,86.09
2017-12-04T02:36:37.916Z,86.23
2017-12-04T02:37:37.982Z,86.14
2017-12-04T02:38:37.687Z,86.09
2017-12-04T02:39:37.951Z,85.99
2017-12-04T02:40:37.962Z,85.9
2017-12-04T02:41:37.990Z,86.09
2017-12-04T02:42:38.034Z,85.76
2017-12-04T02:43:37.994Z,86.18
2017-12-04T02:44:38.007Z,86.37
2017-12-04T02:45:38.014Z,86.37
2017-12-04T02:46:38.026Z,86.37
2017-12-04T02:47:38.100Z,87.08
2017-12-04T02:48:37.836Z,87.08
2017-12-04T02:49:37.810Z,87.08
2017-12-04T02:50:38.078Z,87.27
2017-12-04T02:51:37.831Z,87.37
2017-12-04T02:52:38.146Z,87.13
2017-12-04T02:53:38.105Z,86.37
2017-12-04T02:54:38.118Z,86.75
2017-12-04T02:55:38.243Z,86.56
2017-12-04T02:56:38.154Z,87.32
2017-12-04T02:57:38.153Z,86.9
2017-12-04T02:58:37.910Z,87.41
2017-12-04T02:59:38.174Z,87.51
2017-12-04T03:00:38.185Z,87.27
2017-12-04T03:01:37.944Z,88.12
2017-12-04T03:02:37.954Z,88.79
2017-12-04T03:03:38.219Z,88.5
2017-12-04T03:04:38.233Z,88.6
2017-12-04T03:05:37.990Z,89.36
2017-12-04T03:06:38.255Z,90.01
2017-12-04T03:07:38.272Z,89.45
2017-12-04T03:08:38.275Z,90.11
2017-12-04T03:09:38.286Z,90.01
2017-12-04T03:10:38.347Z,90.01
2017-12-04T03:11:38.308Z,90.01
2017-12-04T03:12:38.320Z,89.36
2017-12-04T03:13:38.332Z,89.26
2017-12-04T03:14:38.091Z,89.54
2017-12-04T03:15:38.356Z,89.83
2017-12-04T03:16:38.366Z,90.2
2017-12-04T03:17:38.124Z,90.39
2017-12-04T03:18:38.388Z,90.49
2017-12-04T03:19:38.398Z,91.05
2017-12-04T03:20:38.409Z,90.39
2017-12-04T03:21:38.422Z,90.77
2017-12-04T03:22:38.433Z,90.49
2017-12-04T03:23:38.191Z,90.49
2017-12-04T03:24:38.460Z,90.68
2017-12-04T03:25:38.216Z,90.58
2017-12-04T03:26:38.224Z,90.77
2017-12-04T03:27:38.488Z,90.86
2017-12-04T03:28:38.550Z,90.58
2017-12-04T03:29:38.511Z,90.58
2017-12-04T03:30:38.531Z,90.58
2017-12-04T03:31:38.554Z,90.77
2017-12-04T03:32:38.543Z,90.68
2017-12-04T03:33:38.559Z,90.58
2017-12-04T03:34:38.316Z,90.86
2017-12-04T03:35:38.579Z,91.05
2017-12-04T03:36:38.588Z,90.96
2017-12-04T03:37:38.602Z,90.68
2017-12-04T03:38:38.614Z,90.49
2017-12-04T03:39:38.372Z,90.58
2017-12-04T03:40:38.633Z,90.68
2017-12-04T03:41:38.645Z,90.68
2017-12-04T03:42:38.657Z,90.01
2017-12-04T03:43:38.668Z,90.58
2017-12-04T03:44:38.428Z,90.68
2017-12-04T03:45:38.695Z,91.05
2017-12-04T03:46:38.497Z,91.53
2017-12-04T03:47:38.717Z,91.53
2017-12-04T03:48:38.721Z,91.62
2017-12-04T03:49:38.733Z,91.72
2017-12-04T03:50:38.741Z,91.81
2017-12-04T03:51:38.501Z,91.43
2017-12-04T03:52:38.777Z,91.24
2017-12-04T03:53:38.775Z,91.81
2017-12-04T03:54:38.787Z,91.81
2017-12-04T03:55:38.796Z,91.34
2017-12-04T03:56:38.807Z,91.72
2017-12-04T03:57:38.568Z,91.05
2017-12-04T03:58:38.830Z,91.34
2017-12-04T03:59:38.844Z,91.05
2017-12-04T04:00:38.610Z,91.34
2017-12-04T04:01:38.864Z,91.15
2017-12-04T04:02:38.874Z,91.43
2017-12-04T04:03:38.633Z,91.15
2017-12-04T04:04:38.895Z,91.05
2017-12-04T04:05:38.656Z,90.49
2017-12-04T04:06:38.919Z,90.96
2017-12-04T04:07:38.933Z,90.11
2017-12-04T04:08:38.944Z,90.3
2017-12-04T04:09:38.983Z,90.3
2017-12-04T04:10:38.963Z,89.92
2017-12-04T04:11:38.979Z,90.01
2017-12-04T04:12:38.734Z,90.58
2017-12-04T04:13:38.743Z,90.86
2017-12-04T04:14:39.008Z,90.77
2017-12-04T04:15:38.766Z,90.49
2017-12-04T04:16:39.047Z,90.77
2017-12-04T04:17:38.789Z,90.68
2017-12-04T04:18:38.800Z,91.05
2017-12-04T04:19:40.318Z,91.24
2017-12-04T04:20:39.073Z,90.96
2017-12-04T04:21:39.086Z,91.24
2017-12-04T04:22:38.843Z,90.86
2017-12-04T04:23:39.113Z,91.15
2017-12-04T04:24:39.129Z,90.86
2017-12-04T04:25:39.128Z,91.15
2017-12-04T04:26:39.140Z,90.96
2017-12-04T04:27:39.151Z,91.24
2017-12-04T04:28:39.160Z,91.05
2017-12-04T04:29:39.173Z,90.96
2017-12-04T04:30:39.185Z,91.05
2017-12-04T04:31:39.198Z,91.15
2017-12-04T04:32:39.206Z,91.05
2017-12-04T04:33:39.217Z,91.15
2017-12-04T04:34:38.978Z,91.05
2017-12-04T04:35:39.241Z,91.34
2017-12-04T04:36:39.001Z,91.24
2017-12-04T04:37:39.261Z,91.72
2017-12-04T04:38:39.422Z,91.62
2017-12-04T04:39:39.284Z,91.72
2017-12-04T04:40:39.331Z,91.34
2017-12-04T04:41:39.307Z,91.53
2017-12-04T04:42:39.319Z,91.34
2017-12-04T04:43:39.078Z,91.34
2017-12-04T04:44:39.342Z,90.77
2017-12-04T04:45:39.350Z,90.77
2017-12-04T04:46:39.361Z,90.96
2017-12-04T04:47:39.374Z,90.49
2017-12-04T04:48:39.132Z,90.68
2017-12-04T04:49:39.395Z,90.01
2017-12-04T04:50:39.412Z,90.25
2017-12-04T04:51:39.417Z,90.11
2017-12-04T04:52:39.430Z,90.3
2017-12-04T04:53:39.448Z,90.3
2017-12-04T04:54:39.450Z,90.49
2017-12-04T04:55:39.467Z,90.86
2017-12-04T04:56:39.221Z,90.68
2017-12-04T04:57:39.297Z,90.49
2017-12-04T04:58:39.494Z,90.3
2017-12-04T04:59:39.507Z,90.58
2017-12-04T05:00:39.269Z,90.49
2017-12-04T05:01:39.528Z,90.96
2017-12-04T05:02:39.541Z,90.68
2017-12-04T05:03:39.317Z,90.86
2017-12-04T05:04:39.566Z,91.34
2017-12-04T05:05:39.572Z,91.34
2017-12-04T05:06:39.330Z,91.91
2017-12-04T05:07:39.596Z,91.53
2017-12-04T05:08:39.609Z,91.81
2017-12-04T05:09:39.364Z,91.34
2017-12-04T05:10:39.633Z,91.15
2017-12-04T05:11:39.387Z,91.34
2017-12-04T05:12:39.652Z,91.34
2017-12-04T05:13:39.410Z,91.53
2017-12-04T05:14:39.672Z,91.53
2017-12-04T05:15:39.690Z,91.62
2017-12-04T05:16:39.492Z,91.15
2017-12-04T05:17:39.710Z,91.15
2017-12-04T05:18:39.466Z,91.91
2017-12-04T05:19:39.734Z,91.62
2017-12-04T05:20:39.743Z,90.77
2017-12-04T05:21:39.751Z,91.05
2017-12-04T05:22:39.511Z,90.77
2017-12-04T05:23:39.774Z,90.77
2017-12-04T05:24:39.789Z,90.77
2017-12-04T05:25:39.801Z,90.68
2017-12-04T05:26:39.552Z,90.86
2017-12-04T05:27:39.567Z,90.96
2017-12-04T05:28:39.830Z,91.01
2017-12-04T05:29:39.841Z,90.91
2017-12-04T05:30:39.856Z,90.82
2017-12-04T05:31:39.915Z,90.25
2017-12-04T05:32:39.873Z,90.2
2017-12-04T05:33:39.891Z,90.96
2017-12-04T05:34:39.907Z,90.58
2017-12-04T05:35:39.910Z,90.44
2017-12-04T05:36:39.921Z,90.49
2017-12-04T05:37:39.931Z,90.68
2017-12-04T05:38:39.947Z,91.05
2017-12-04T05:39:39.957Z,90.39
2017-12-04T05:40:39.716Z,91.15
2017-12-04T05:41:40.004Z,91.05
2017-12-04T05:42:39.989Z,91.43
2017-12-04T05:43:39.746Z,91.53
2017-12-04T05:44:40.011Z,91.53
2017-12-04T05:45:40.026Z,91.72
2017-12-04T05:46:40.034Z,91.24
2017-12-04T05:47:40.050Z,91.29
2017-12-04T05:48:39.805Z,91.15
2017-12-04T05:49:40.066Z,91.15
2017-12-04T05:50:40.132Z,90.91
2017-12-04T05:51:40.095Z,90.72
2017-12-04T05:52:40.100Z,90.82
2017-12-04T05:53:40.111Z,90.53
2017-12-04T05:54:40.124Z,91.1
2017-12-04T05:55:40.237Z,91.1
2017-12-04T05:56:39.893Z,91.15
2017-12-04T05:57:39.905Z,91.1
2017-12-04T05:58:40.170Z,91.29
2017-12-04T05:59:40.181Z,90.72
2017-12-04T06:00:39.938Z,90.72
2017-12-04T06:01:40.204Z,90.82
2017-12-04T06:02:40.216Z,90.91
2017-12-04T06:03:40.230Z,91.1
2017-12-04T06:04:40.244Z,91.05
2017-12-04T06:05:40.299Z,91.2
2017-12-04T06:06:40.258Z,91.39
2017-12-04T06:07:40.279Z,91.29
2017-12-04T06:08:40.029Z,91.1
2017-12-04T06:09:40.303Z,91.39
2017-12-04T06:10:40.305Z,91.01
2017-12-04T06:11:40.321Z,90.53
2017-12-04T06:12:40.328Z,90.82
2017-12-04T06:13:40.338Z,90.72
2017-12-04T06:14:40.351Z,91.01
2017-12-04T06:15:40.360Z,91.1
2017-12-04T06:16:40.376Z,90.72
2017-12-04T06:17:40.385Z,90.91
2017-12-04T06:18:40.143Z,90.53
2017-12-04T06:19:40.154Z,90.72
2017-12-04T06:20:40.468Z,90.53
2017-12-04T06:21:40.199Z,90.82
2017-12-04T06:22:40.443Z,91.1
2017-12-04T06:23:40.457Z,90.91
2017-12-04T06:24:40.215Z,91.39
2017-12-04T06:25:40.223Z,91.2
2017-12-04T06:26:40.497Z,91.34
2017-12-04T06:27:40.499Z,91.39
2017-12-04T06:28:40.266Z,91.1
2017-12-04T06:29:40.521Z,91.1
2017-12-04T06:30:40.532Z,91.67
2017-12-04T06:31:40.549Z,91.34
2017-12-04T06:32:40.558Z,91.81
2017-12-04T06:33:40.315Z,91.91
2017-12-04T06:34:40.578Z,91.96
2017-12-04T06:35:40.387Z,91.67
2017-12-04T06:36:40.607Z,91.77
2017-12-04T06:37:40.612Z,91.67
2017-12-04T06:38:40.629Z,91.58
2017-12-04T06:39:40.636Z,91.1
2017-12-04T06:40:40.645Z,91.2
2017-12-04T06:41:40.404Z,90.82
2017-12-04T06:42:40.668Z,90.82
2017-12-04T06:43:40.680Z,90.82
2017-12-04T06:44:40.439Z,91.01
2017-12-04T06:45:40.700Z,90.72
2017-12-04T06:46:40.715Z,90.44
2017-12-04T06:47:40.724Z,91.01
2017-12-04T06:48:40.736Z,90.06
2017-12-04T06:49:40.756Z,90.72
2017-12-04T06:50:40.759Z,90.34
2017-12-04T06:51:40.821Z,90.44
2017-12-04T06:52:40.782Z,90.34
2017-12-04T06:53:40.795Z,89.78
2017-12-04T06:54:40.806Z,90.06
2017-12-04T06:55:40.815Z,89.5
2017-12-04T06:56:40.829Z,89.4
2017-12-04T06:57:40.841Z,89.12
2017-12-04T06:58:40.598Z,89.31
2017-12-04T06:59:40.615Z,89.02
2017-12-04T07:00:40.619Z,89.5
2017-12-04T07:01:40.883Z,88.83
2017-12-04T07:02:40.896Z,89.12
2017-12-04T07:03:40.909Z,89.69
2017-12-04T07:04:40.918Z,89.12
2017-12-04T07:05:40.929Z,89.97
2017-12-04T07:06:40.954Z,89.21
2017-12-04T07:07:40.702Z,88.93
2017-12-04T07:08:41.013Z,89.02
2017-12-04T07:09:40.724Z,88.36
2017-12-04T07:10:40.987Z,88.83
2017-12-04T07:11:40.998Z,88.64
2017-12-04T07:12:41.009Z,87.88
2017-12-04T07:13:41.022Z,88.64
2017-12-04T07:14:40.780Z,88.74
2017-12-04T07:15:41.045Z,88.55
2017-12-04T07:16:41.053Z,88.26
2017-12-04T07:17:41.066Z,88.17
2017-12-04T07:18:41.081Z,88.55
2017-12-04T07:19:41.088Z,88.36
2017-12-04T07:20:41.101Z,88.17
2017-12-04T07:21:41.107Z,88.17
2017-12-04T07:22:41.122Z,87.98
2017-12-04T07:23:40.929Z,87.7
2017-12-04T07:24:41.150Z,87.98
2017-12-04T07:25:41.156Z,87.7
2017-12-04T07:26:41.166Z,87.41
2017-12-04T07:27:41.182Z,87.41
2017-12-04T07:28:40.941Z,87.51
2017-12-04T07:29:40.951Z,87.13
2017-12-04T07:30:41.217Z,86.94
2017-12-04T07:31:41.228Z,87.23
2017-12-04T07:32:41.241Z,87.04
2017-12-04T07:33:41.249Z,87.41
2017-12-04T07:34:41.007Z,87.6
2017-12-04T07:35:41.272Z,87.6
2017-12-04T07:36:41.285Z,87.7
2017-12-04T07:37:41.048Z,86.94
2017-12-04T07:38:41.104Z,86.94
2017-12-04T07:39:41.085Z,87.6
2017-12-04T07:40:41.333Z,88.26
2017-12-04T07:41:41.090Z,88.83
2017-12-04T07:42:41.352Z,89.4
2017-12-04T07:43:41.112Z,89.97
2017-12-04T07:44:41.380Z,90.06
2017-12-04T07:45:41.440Z,90.16
2017-12-04T07:46:41.151Z,90.44
2017-12-04T07:47:41.162Z,91.2
2017-12-04T07:48:41.426Z,91.39
2017-12-04T07:49:41.436Z,91.29
2017-12-04T07:50:41.196Z,90.91
2017-12-04T07:51:41.459Z,91.01
2017-12-04T07:52:41.473Z,91.1
2017-12-04T07:53:41.483Z,91.86
2017-12-04T07:54:41.495Z,91.29
2017-12-04T07:55:41.308Z,91.1
2017-12-04T07:56:41.518Z,91.2
2017-12-04T07:57:41.279Z,91.2
2017-12-04T07:58:41.541Z,91.58
2017-12-04T07:59:41.556Z,91.39
2017-12-04T08:00:41.565Z,91.67
2017-12-04T08:01:41.577Z,91.48
2017-12-04T08:02:41.589Z,91.96
2017-12-04T08:03:41.601Z,92.71
2017-12-04T08:04:41.617Z,92.71
2017-12-04T08:05:41.375Z,93.28
2017-12-04T08:06:41.387Z,92.52
2017-12-04T08:07:41.397Z,92.43
2017-12-04T08:08:41.667Z,92.24
2017-12-04T08:09:41.677Z,92.43
2017-12-04T08:10:41.739Z,92.33
2017-12-04T08:11:41.700Z,92.71
2017-12-04T08:12:41.712Z,92.99
2017-12-04T08:13:41.725Z,92.71
2017-12-04T08:14:41.482Z,92.9
2017-12-04T08:15:41.743Z,92.33
2017-12-04T08:16:41.759Z,92.52
2017-12-04T08:17:41.771Z,92.71
2017-12-04T08:18:41.781Z,93.28
2017-12-04T08:19:41.794Z,92.71
2017-12-04T08:20:41.553Z,92.99
2017-12-04T08:21:41.821Z,92.99
2017-12-04T08:22:41.829Z,93.09
2017-12-04T08:23:41.844Z,93.28
2017-12-04T08:24:41.855Z,93.28
2017-12-04T08:25:41.663Z,92.61
2017-12-04T08:26:41.877Z,92.99
2017-12-04T08:27:41.887Z,92.43
2017-12-04T08:28:41.899Z,92.33
2017-12-04T08:29:41.910Z,92.24
2017-12-04T08:30:41.672Z,92.14
2017-12-04T08:31:41.938Z,92.14
2017-12-04T08:32:41.697Z,91.77
2017-12-04T08:33:41.961Z,91.58
2017-12-04T08:34:42.018Z,91.86
2017-12-04T08:35:41.987Z,91.1
2017-12-04T08:36:41.997Z,90.63
2017-12-04T08:37:42.007Z,90.96
2017-12-04T08:38:41.770Z,90.3
2017-12-04T08:39:42.038Z,90.3
2017-12-04T08:40:42.096Z,90.01
2017-12-04T08:41:42.057Z,90.11
2017-12-04T08:42:42.067Z,89.92
2017-12-04T08:43:42.094Z,90.01
2017-12-04T08:44:42.096Z,90.11
2017-12-04T08:45:42.105Z,89.54
2017-12-04T08:46:42.117Z,89.73
2017-12-04T08:47:42.129Z,89.54
2017-12-04T08:48:42.141Z,89.54
2017-12-04T08:49:42.156Z,90.01
2017-12-04T08:50:42.168Z,90.39
2017-12-04T08:51:41.926Z,90.01
2017-12-04T08:52:42.191Z,90.2
2017-12-04T08:53:42.203Z,89.92
2017-12-04T08:54:42.215Z,90.11
2017-12-04T08:55:42.226Z,90.3
2017-12-04T08:56:42.292Z,90.48
2017-12-04T08:57:42.262Z,90.39
2017-12-04T08:58:42.279Z,90.48
2017-12-04T08:59:42.278Z,90.2
2017-12-04T09:00:42.287Z,89.73
2017-12-04T09:01:42.304Z,89.82
2017-12-04T09:02:42.059Z,89.35
2017-12-04T09:03:42.323Z,89.63
2017-12-04T09:04:42.083Z,89.92
2017-12-04T09:05:42.346Z,89.35
2017-12-04T09:06:42.108Z,88.78
2017-12-04T09:07:42.391Z,89.06
2017-12-04T09:08:42.386Z,88.59
2017-12-04T09:09:42.398Z,88.78
2017-12-04T09:10:42.410Z,88.4
2017-12-04T09:11:42.472Z,87.74
2017-12-04T09:12:42.185Z,88.4
2017-12-04T09:13:42.195Z,87.93
2017-12-04T09:14:42.463Z,87.93
2017-12-04T09:15:42.499Z,88.21
2017-12-04T09:16:42.534Z,88.21
2017-12-04T09:17:42.502Z,88.4
2017-12-04T09:18:42.258Z,88.59
2017-12-04T09:19:42.525Z,88.4
2017-12-04T09:20:42.538Z,88.49
2017-12-04T09:21:42.556Z,88.21
2017-12-04T09:22:42.561Z,88.21
2017-12-04T09:23:42.573Z,88.21
2017-12-04T09:24:42.582Z,88.59
2017-12-04T09:25:42.597Z,88.4
2017-12-04T09:26:42.662Z,88.68
2017-12-04T09:27:42.647Z,88.49
2017-12-04T09:28:42.688Z,88.02
2017-12-04T09:29:42.649Z,88.31
2017-12-04T09:30:42.407Z,88.4
2017-12-04T09:31:42.670Z,88.02
2017-12-04T09:32:42.685Z,88.4
2017-12-04T09:33:42.707Z,87.84
2017-12-04T09:34:42.708Z,88.4
2017-12-04T09:35:42.720Z,88.21
2017-12-04T09:36:42.740Z,88.59
2017-12-04T09:37:42.754Z,88.4
2017-12-04T09:38:42.760Z,88.12
2017-12-04T09:39:42.517Z,88.31
2017-12-04T09:40:42.795Z,88.4
2017-12-04T09:41:42.846Z,87.74
2017-12-04T09:42:42.807Z,88.21
2017-12-04T09:43:42.818Z,89.06
2017-12-04T09:44:42.579Z,88.68
2017-12-04T09:45:42.846Z,88.87
2017-12-04T09:46:42.854Z,88.78
2017-12-04T09:47:42.617Z,88.59
2017-12-04T09:48:42.881Z,88.78
2017-12-04T09:49:42.892Z,88.78
2017-12-04T09:50:42.906Z,88.12
2017-12-04T09:51:42.920Z,88.49
2017-12-04T09:52:42.676Z,88.21
2017-12-04T09:53:42.946Z,88.21
2017-12-04T09:54:42.953Z,88.68
2017-12-04T09:55:42.965Z,88.78
2017-12-04T09:56:43.029Z,88.87
2017-12-04T09:57:42.738Z,88.78
2017-12-04T09:58:43.006Z,88.87
2017-12-04T09:59:43.016Z,89.06
2017-12-04T10:00:43.025Z,89.06
2017-12-04T10:01:43.041Z,88.68
2017-12-04T10:02:42.799Z,89.44
2017-12-04T10:03:43.066Z,89.44
2017-12-04T10:04:43.077Z,89.82
2017-12-04T10:05:43.089Z,90.11
2017-12-04T10:06:43.102Z,89.73
2017-12-04T10:07:43.116Z,90.3
2017-12-04T10:08:43.125Z,90.48
2017-12-04T10:09:43.086Z,90.11
2017-12-04T10:10:43.151Z,90.77
2017-12-04T10:11:43.212Z,90.77
2017-12-04T10:12:43.175Z,91.05
2017-12-04T10:13:43.186Z,91.24
2017-12-04T10:14:43.204Z,90.96
2017-12-04T10:15:43.216Z,91.24
2017-12-04T10:16:42.970Z,91.53
2017-12-04T10:17:43.237Z,92
2017-12-04T10:18:43.248Z,92.19
2017-12-04T10:19:43.006Z,93.42
2017-12-04T10:20:43.269Z,93.04
2017-12-04T10:21:43.032Z,93.42
2017-12-04T10:22:43.298Z,93.04
2017-12-04T10:23:43.330Z,93.66
2017-12-04T10:24:43.066Z,94.13
2017-12-04T10:25:43.335Z,94.56
2017-12-04T10:26:43.091Z,93.61
2017-12-04T10:27:43.363Z,93.7
2017-12-04T10:28:43.115Z,93.89
2017-12-04T10:29:43.431Z,93.23
2017-12-04T10:30:43.395Z,93.61
2017-12-04T10:31:43.154Z,93.32
2017-12-04T10:32:43.163Z,93.51
2017-12-04T10:33:43.430Z,92.94
2017-12-04T10:34:43.439Z,92.94
2017-12-04T10:35:43.457Z,92.29
2017-12-04T10:36:43.468Z,92.29
2017-12-04T10:37:43.481Z,92.29
2017-12-04T10:38:43.257Z,92.29
2017-12-04T10:39:43.248Z,92.47
2017-12-04T10:40:43.512Z,92.47
2017-12-04T10:41:43.273Z,91.62
2017-12-04T10:42:43.535Z,91.72
2017-12-04T10:43:43.548Z,91.72
2017-12-04T10:44:43.611Z,91.72
2017-12-04T10:45:43.572Z,91.53
2017-12-04T10:46:43.586Z,91.24
2017-12-04T10:47:43.348Z,91.15
2017-12-04T10:48:43.671Z,90.77
2017-12-04T10:49:43.623Z,90.77
2017-12-04T10:50:43.382Z,90.81
2017-12-04T10:51:43.397Z,90.11
2017-12-04T10:52:43.662Z,90.48
2017-12-04T10:53:43.679Z,90.58
2017-12-04T10:54:43.696Z,90.77
2017-12-04T10:55:43.699Z,90.48
2017-12-04T10:56:43.710Z,90.39
2017-12-04T10:57:43.722Z,90.44
2017-12-04T10:58:43.482Z,90.11
2017-12-04T10:59:43.897Z,90.01
2017-12-04T11:00:43.772Z,90.15
2017-12-04T11:01:43.776Z,89.92
2017-12-04T11:02:43.535Z,90.01
2017-12-04T11:03:43.801Z,89.96
2017-12-04T11:04:43.810Z,90.11
2017-12-04T11:05:43.824Z,90.01
2017-12-04T11:06:43.835Z,90.86
2017-12-04T11:07:43.848Z,90.48
2017-12-04T11:08:43.864Z,90.3
2017-12-04T11:09:43.625Z,90.48
2017-12-04T11:10:43.889Z,90.11
2017-12-04T11:11:43.901Z,90.44
2017-12-04T11:12:43.916Z,90.06
2017-12-04T11:13:43.947Z,90.15
2017-12-04T11:14:43.687Z,89.77
2017-12-04T11:15:43.698Z,89.49
2017-12-04T11:16:43.967Z,89.11
2017-12-04T11:17:43.978Z,89.87
2017-12-04T11:18:43.737Z,89.73
2017-12-04T11:19:44.001Z,89.35
2017-12-04T11:20:44.018Z,90.2
2017-12-04T11:21:44.027Z,89.92
2017-12-04T11:22:44.044Z,90.48
2017-12-04T11:23:43.835Z,90.39
2017-12-04T11:24:44.063Z,90.11
2017-12-04T11:25:44.078Z,89.82
2017-12-04T11:26:44.090Z,90.01
2017-12-04T11:27:43.851Z,90.3
2017-12-04T11:28:44.116Z,90.01
2017-12-04T11:29:44.124Z,90.39
2017-12-04T11:30:43.934Z,90.15
2017-12-04T11:31:44.150Z,90.44
2017-12-04T11:32:44.161Z,90.25
2017-12-04T11:33:44.125Z,89.35
2017-12-04T11:34:44.187Z,89.49
2017-12-04T11:35:44.202Z,89.54
2017-12-04T11:36:44.214Z,90.01
2017-12-04T11:37:44.223Z,89.96
2017-12-04T11:38:44.237Z,89.44
2017-12-04T11:39:44.252Z,89.73
2017-12-04T11:40:44.265Z,90.11
2017-12-04T11:41:44.021Z,90.39
2017-12-04T11:42:44.285Z,90.39
2017-12-04T11:43:44.299Z,90.58
2017-12-04T11:44:44.315Z,90.15
2017-12-04T11:45:44.070Z,89.49
2017-12-04T11:46:44.081Z,90.11
2017-12-04T11:47:44.360Z,89.58
2017-12-04T11:48:44.409Z,89.68
2017-12-04T11:49:44.371Z,89.58
2017-12-04T11:50:44.384Z,89.49
2017-12-04T11:51:44.396Z,89.77
2017-12-04T11:52:44.157Z,89.77
2017-12-04T11:53:44.170Z,89.87
2017-12-04T11:54:44.448Z,89.49
2017-12-04T11:55:44.192Z,89.3
2017-12-04T11:56:44.206Z,89.68
2017-12-04T11:57:44.218Z,88.92
2017-12-04T11:58:44.486Z,89.01
2017-12-04T11:59:44.495Z,89.2
2017-12-04T12:00:44.509Z,88.92
2017-12-04T12:01:44.520Z,89.58
2017-12-04T12:02:44.532Z,89.11
2017-12-04T12:03:44.344Z,88.45
2017-12-04T12:04:44.308Z,88.82
2017-12-04T12:05:44.571Z,88.45
2017-12-04T12:06:44.583Z,88.54
2017-12-04T12:07:44.342Z,88.26
2017-12-04T12:08:44.607Z,88.26
2017-12-04T12:09:44.626Z,87.98
2017-12-04T12:10:44.635Z,88.45
2017-12-04T12:11:44.395Z,88.35
2017-12-04T12:12:44.407Z,88.26
2017-12-04T12:13:44.428Z,88.45
2017-12-04T12:14:44.686Z,87.88
2017-12-04T12:15:44.699Z,88.07
2017-12-04T12:16:44.710Z,87.88
2017-12-04T12:17:44.723Z,87.98
2017-12-04T12:18:44.789Z,87.78
2017-12-04T12:19:44.750Z,87.88
2017-12-04T12:20:44.762Z,87.69
2017-12-04T12:21:44.522Z,87.69
2017-12-04T12:22:44.537Z,88.17
2017-12-04T12:23:44.548Z,88.45
2017-12-04T12:24:44.814Z,88.35
2017-12-04T12:25:44.834Z,88.45
2017-12-04T12:26:44.840Z,88.26
2017-12-04T12:27:44.866Z,88.54
2017-12-04T12:28:44.864Z,88.26
2017-12-04T12:29:44.879Z,87.69
2017-12-04T12:30:44.890Z,88.35
2017-12-04T12:31:44.902Z,88.17
2017-12-04T12:32:44.918Z,88.17
2017-12-04T12:33:44.941Z,88.17
2017-12-04T12:34:44.949Z,88.92
2017-12-04T12:35:44.955Z,88.82
2017-12-04T12:36:45.019Z,88.54
2017-12-04T12:37:45.033Z,87.69
2017-12-04T12:38:44.993Z,87.59
2017-12-04T12:39:45.006Z,87.88
2017-12-04T12:40:45.020Z,87.69
2017-12-04T12:41:44.777Z,87.88
2017-12-04T12:42:45.045Z,88.26
2017-12-04T12:43:45.058Z,88.54
2017-12-04T12:44:45.069Z,88.17
2017-12-04T12:45:45.082Z,88.07
2017-12-04T12:46:44.868Z,88.64
2017-12-04T12:47:44.857Z,88.45
2017-12-04T12:48:44.869Z,88.64
2017-12-04T12:49:44.880Z,88.45
2017-12-04T12:50:45.146Z,88.26
2017-12-04T12:51:45.160Z,87.78
2017-12-04T12:52:45.170Z,87.88
2017-12-04T12:53:44.933Z,88.45
2017-12-04T12:54:44.946Z,87.98
2017-12-04T12:55:45.259Z,88.54